createdAt,value
2017-02-28T00:00:11.788Z,10.73
2017-02-28T00:00:52.338Z,10.78
2017-02-28T00:01:32.886Z,10.71
2017-02-28T00:02:13.306Z,10.53
2017-02-28T00:02:53.778Z,10.51
2017-02-28T00:03:34.271Z,10.6
2017-02-28T00:04:14.886Z,10.42
2017-02-28T00:04:55.209Z,10.38
2017-02-28T00:05:35.724Z,10.38
2017-02-28T00:06:16.284Z,10.42
2017-02-28T00:06:56.729Z,10.34
2017-02-28T00:07:37.215Z,10.42
2017-02-28T00:08:17.776Z,10.48
2017-02-28T00:08:58.277Z,10.52
2017-02-28T00:09:38.752Z,10.32
2017-02-28T00:10:19.286Z,10.3
2017-02-28T00:10:59.765Z,10.38
2017-02-28T00:11:40.298Z,10.47
2017-02-28T00:12:20.785Z,10.42
2017-02-28T00:13:01.275Z,10.51
2017-02-28T00:13:41.803Z,10.48
2017-02-28T00:14:22.261Z,10.51
2017-02-28T00:15:02.795Z,10.34
2017-02-28T00:15:43.340Z,10.3
2017-02-28T00:16:23.880Z,10.18
2017-02-28T00:17:04.351Z,10.18
2017-02-28T00:17:44.842Z,10.22
2017-02-28T00:18:25.322Z,10.14
2017-02-28T00:19:05.847Z,10.15
2017-02-28T00:19:46.367Z,9.81
2017-02-28T00:20:26.819Z,9.86
2017-02-28T00:21:07.301Z,9.89
2017-02-28T00:21:47.762Z,9.97
2017-02-28T00:22:28.280Z,9.99
2017-02-28T00:23:08.796Z,10.04
2017-02-28T00:23:49.283Z,10.05
2017-02-28T00:24:29.848Z,9.97
2017-02-28T00:25:10.338Z,9.97
2017-02-28T00:25:50.814Z,9.94
2017-02-28T00:26:31.343Z,9.93
2017-02-28T00:27:11.862Z,9.97
2017-02-28T00:27:52.358Z,9.96
2017-02-28T00:28:32.894Z,9.89
2017-02-28T00:29:13.431Z,9.84
2017-02-28T00:29:53.890Z,9.76
2017-02-28T00:30:34.417Z,9.75
2017-02-28T00:31:14.860Z,9.6
2017-02-28T00:31:55.373Z,9.75
2017-02-28T00:32:35.836Z,9.66
2017-02-28T00:33:16.415Z,9.61
2017-02-28T00:33:56.899Z,9.71
2017-02-28T00:34:37.409Z,9.74
2017-02-28T00:35:17.863Z,9.71
2017-02-28T00:35:58.425Z,9.78
2017-02-28T00:36:38.883Z,9.83
2017-02-28T00:37:19.425Z,9.86
2017-02-28T00:37:59.958Z,9.75
2017-02-28T00:38:44.020Z,9.78
2017-02-28T00:39:24.528Z,9.58
2017-02-28T00:40:05.030Z,9.64
2017-02-28T00:40:45.524Z,9.39
2017-02-28T00:41:26.024Z,9.31
2017-02-28T00:42:06.548Z,9.24
2017-02-28T00:42:47.055Z,9.38
2017-02-28T00:43:27.730Z,9.47
2017-02-28T00:44:08.302Z,9.51
2017-02-28T00:44:48.877Z,9.51
2017-02-28T00:45:29.309Z,9.36
2017-02-28T00:46:09.819Z,9.38
2017-02-28T00:46:50.390Z,9.4
2017-02-28T00:47:30.862Z,9.32
2017-02-28T00:48:11.336Z,9.36
2017-02-28T00:48:51.802Z,9.29
2017-02-28T00:49:32.291Z,9.08
2017-02-28T00:50:12.788Z,8.87
2017-02-28T00:50:53.259Z,8.71
2017-02-28T00:51:33.754Z,8.83
2017-02-28T00:52:14.270Z,8.83
2017-02-28T00:52:54.757Z,8.65
2017-02-28T00:53:35.250Z,8.63
2017-02-28T00:54:15.713Z,8.81
2017-02-28T00:54:56.222Z,8.8
2017-02-28T00:55:36.710Z,8.76
2017-02-28T00:56:17.145Z,8.7
2017-02-28T00:56:57.640Z,8.66
2017-02-28T00:57:38.174Z,8.7
2017-02-28T00:58:18.650Z,8.76
2017-02-28T00:58:59.235Z,8.63
2017-02-28T00:59:39.819Z,8.65
2017-02-28T01:00:20.361Z,8.74
2017-02-28T01:01:00.879Z,8.61
2017-02-28T01:01:41.402Z,8.68
2017-02-28T01:02:22.366Z,8.53
2017-02-28T01:03:03.744Z,8.36
2017-02-28T01:03:44.214Z,8.41
2017-02-28T01:04:24.780Z,8.4
2017-02-28T01:05:05.198Z,8.55
2017-02-28T01:05:45.713Z,8.48
2017-02-28T01:06:26.188Z,8.55
2017-02-28T01:07:06.696Z,8.68
2017-02-28T01:07:47.168Z,8.61
2017-02-28T01:08:27.681Z,8.4
2017-02-28T01:09:08.142Z,8.37
2017-02-28T01:09:49.404Z,8.41
2017-02-28T01:10:29.157Z,8.5
2017-02-28T01:11:09.627Z,8.38
2017-02-28T01:11:50.115Z,8.29
2017-02-28T01:12:30.621Z,8.04
2017-02-28T01:13:11.112Z,7.98
2017-02-28T01:13:51.608Z,7.97
2017-02-28T01:14:32.176Z,8.1
2017-02-28T01:15:12.624Z,8.05
2017-02-28T01:15:53.126Z,8.1
2017-02-28T01:16:33.565Z,8.15
2017-02-28T01:17:14.054Z,8.1
2017-02-28T01:17:54.555Z,8.08
2017-02-28T01:18:35.056Z,8.05
2017-02-28T01:19:15.554Z,8.11
2017-02-28T01:19:56.057Z,8.04
2017-02-28T01:20:36.494Z,7.98
2017-02-28T01:21:17.031Z,8.04
2017-02-28T01:21:57.505Z,8.05
2017-02-28T01:22:37.999Z,7.97
2017-02-28T01:23:18.480Z,8.02
2017-02-28T01:23:58.971Z,8.01
2017-02-28T01:24:39.486Z,7.92
2017-02-28T01:25:20.015Z,7.9
2017-02-28T01:26:00.512Z,7.9
2017-02-28T01:26:40.963Z,7.72
2017-02-28T01:27:21.528Z,7.77
2017-02-28T01:28:01.933Z,7.68
2017-02-28T01:28:42.464Z,7.64
2017-02-28T01:29:22.960Z,7.55
2017-02-28T01:30:03.581Z,7.64
2017-02-28T01:30:43.919Z,7.53
2017-02-28T01:31:24.468Z,7.46
2017-02-28T01:32:04.989Z,7.57
2017-02-28T01:32:45.432Z,7.67
2017-02-28T01:33:25.988Z,7.39
2017-02-28T01:34:06.479Z,7.32
2017-02-28T01:34:47.018Z,7.42
2017-02-28T01:35:27.544Z,7.5
2017-02-28T01:36:08.034Z,7.49
2017-02-28T01:36:48.482Z,7.4
2017-02-28T01:37:29.068Z,7.42
2017-02-28T01:38:09.675Z,7.4
2017-02-28T01:38:50.180Z,7.45
2017-02-28T01:39:30.666Z,7.28
2017-02-28T01:40:11.149Z,7.39
2017-02-28T01:40:51.639Z,7.31
2017-02-28T01:41:32.121Z,7.42
2017-02-28T01:42:12.650Z,7.31
2017-02-28T01:42:53.092Z,7.34
2017-02-28T01:43:33.570Z,7.06
2017-02-28T01:44:14.141Z,7.1
2017-02-28T01:44:54.570Z,7.21
2017-02-28T01:45:35.090Z,7.09
2017-02-28T01:46:15.527Z,7.03
2017-02-28T01:46:55.999Z,7.07
2017-02-28T01:47:36.487Z,7.03
2017-02-28T01:48:16.967Z,7.17
2017-02-28T01:48:57.477Z,7.21
2017-02-28T01:49:37.947Z,7.21
2017-02-28T01:50:18.429Z,7.1
2017-02-28T01:50:58.915Z,7.03
2017-02-28T01:51:39.434Z,6.89
2017-02-28T01:52:19.945Z,6.84
2017-02-28T01:53:00.448Z,6.81
2017-02-28T01:53:40.928Z,7.05
2017-02-28T01:54:21.421Z,6.99
2017-02-28T01:55:01.885Z,6.94
2017-02-28T01:55:42.418Z,6.91
2017-02-28T01:56:22.895Z,6.97
2017-02-28T01:57:03.415Z,6.81
2017-02-28T01:57:43.904Z,6.87
2017-02-28T01:58:24.405Z,6.81
2017-02-28T01:59:04.862Z,6.97
2017-02-28T01:59:45.315Z,6.92
2017-02-28T02:00:25.834Z,7.02
2017-02-28T02:01:06.317Z,6.89
2017-02-28T02:01:46.807Z,6.74
2017-02-28T02:02:27.312Z,6.87
2017-02-28T02:03:07.811Z,6.8
2017-02-28T02:03:48.292Z,6.79
2017-02-28T02:04:28.773Z,6.85
2017-02-28T02:05:09.296Z,6.85
2017-02-28T02:05:49.772Z,6.85
2017-02-28T02:06:30.266Z,6.77
2017-02-28T02:07:10.809Z,6.73
2017-02-28T02:07:51.266Z,6.62
2017-02-28T02:08:31.787Z,6.61
2017-02-28T02:09:12.258Z,6.67
2017-02-28T02:09:52.744Z,6.8
2017-02-28T02:10:33.282Z,6.84
2017-02-28T02:11:13.746Z,6.92
2017-02-28T02:11:54.165Z,7.05
2017-02-28T02:12:34.701Z,6.8
2017-02-28T02:13:15.298Z,6.81
2017-02-28T02:13:55.703Z,6.76
2017-02-28T02:14:36.250Z,6.67
2017-02-28T02:15:16.797Z,6.84
2017-02-28T02:15:57.264Z,6.81
2017-02-28T02:16:37.786Z,6.71
2017-02-28T02:17:18.293Z,6.67
2017-02-28T02:17:58.755Z,6.58
2017-02-28T02:18:39.299Z,6.58
2017-02-28T02:19:19.765Z,6.66
2017-02-28T02:20:00.252Z,6.76
2017-02-28T02:20:40.699Z,6.87
2017-02-28T02:21:21.158Z,6.89
2017-02-28T02:22:01.780Z,6.92
2017-02-28T02:22:42.336Z,6.97
2017-02-28T02:23:22.846Z,6.94
2017-02-28T02:24:03.376Z,6.99
2017-02-28T02:24:43.885Z,6.87
2017-02-28T02:25:24.371Z,6.79
2017-02-28T02:26:04.831Z,6.81
2017-02-28T02:26:45.297Z,6.8
2017-02-28T02:27:25.833Z,6.77
2017-02-28T02:28:06.306Z,6.87
2017-02-28T02:28:46.784Z,6.87
2017-02-28T02:29:27.260Z,6.81
2017-02-28T02:30:07.748Z,6.79
2017-02-28T02:30:48.217Z,6.81
2017-02-28T02:31:28.732Z,6.92
2017-02-28T02:32:09.213Z,6.94
2017-02-28T02:32:49.698Z,6.79
2017-02-28T02:33:30.197Z,6.84
2017-02-28T02:34:10.665Z,6.84
2017-02-28T02:34:51.190Z,6.77
2017-02-28T02:35:31.737Z,6.76
2017-02-28T02:36:12.186Z,6.7
2017-02-28T02:36:52.693Z,6.7
2017-02-28T02:37:33.186Z,6.76
2017-02-28T02:38:13.655Z,6.87
2017-02-28T02:38:54.147Z,6.99
2017-02-28T02:39:34.672Z,6.94
2017-02-28T02:40:15.135Z,6.99
2017-02-28T02:40:55.625Z,6.92
2017-02-28T02:41:36.090Z,6.77
2017-02-28T02:42:16.574Z,7.03
2017-02-28T02:42:57.071Z,6.88
2017-02-28T02:43:37.589Z,6.74
2017-02-28T02:44:18.044Z,6.81
2017-02-28T02:44:58.539Z,6.89
2017-02-28T02:45:39.044Z,6.8
2017-02-28T02:46:19.560Z,6.81
2017-02-28T02:47:00.117Z,6.69
2017-02-28T02:47:40.620Z,6.62
2017-02-28T02:48:21.156Z,6.76
2017-02-28T02:49:01.619Z,6.73
2017-02-28T02:49:42.794Z,6.56
2017-02-28T02:50:23.295Z,6.51
2017-02-28T02:51:03.802Z,6.51
2017-02-28T02:51:44.252Z,6.46
2017-02-28T02:52:24.764Z,6.61
2017-02-28T02:53:05.231Z,6.41
2017-02-28T02:53:45.713Z,6.52
2017-02-28T02:54:26.228Z,6.59
2017-02-28T02:55:06.719Z,6.56
2017-02-28T02:55:47.231Z,6.62
2017-02-28T02:56:27.742Z,6.59
2017-02-28T02:57:08.223Z,6.58
2017-02-28T02:57:48.711Z,6.49
2017-02-28T02:58:29.245Z,6.56
2017-02-28T02:59:09.722Z,6.46
2017-02-28T02:59:50.257Z,6.4
2017-02-28T03:00:30.789Z,6.41
2017-02-28T03:01:11.234Z,6.36
2017-02-28T03:01:51.714Z,6.43
2017-02-28T03:02:32.239Z,6.62
2017-02-28T03:03:12.681Z,6.49
2017-02-28T03:03:53.174Z,6.56
2017-02-28T03:04:33.680Z,6.46
2017-02-28T03:05:14.155Z,6.61
2017-02-28T03:05:54.608Z,6.43
2017-02-28T03:06:35.170Z,6.49
2017-02-28T03:07:15.620Z,6.48
2017-02-28T03:07:56.127Z,6.49
2017-02-28T03:08:36.591Z,6.61
2017-02-28T03:09:17.162Z,6.59
2017-02-28T03:09:57.700Z,6.58
2017-02-28T03:10:38.213Z,6.52
2017-02-28T03:11:18.700Z,6.66
2017-02-28T03:11:59.177Z,6.55
2017-02-28T03:12:39.690Z,6.64
2017-02-28T03:13:20.218Z,6.62
2017-02-28T03:14:00.689Z,6.54
2017-02-28T03:14:41.226Z,6.52
2017-02-28T03:15:21.711Z,6.59
2017-02-28T03:16:02.170Z,6.67
2017-02-28T03:16:42.712Z,6.69
2017-02-28T03:17:23.162Z,6.74
2017-02-28T03:18:03.664Z,6.59
2017-02-28T03:18:44.151Z,6.66
2017-02-28T03:19:24.614Z,6.61
2017-02-28T03:20:05.126Z,6.73
2017-02-28T03:20:45.583Z,6.59
2017-02-28T03:21:26.051Z,6.56
2017-02-28T03:22:06.560Z,6.7
2017-02-28T03:22:47.047Z,6.77
2017-02-28T03:23:27.540Z,6.8
2017-02-28T03:24:08.053Z,6.66
2017-02-28T03:24:48.559Z,6.67
2017-02-28T03:25:29.065Z,6.66
2017-02-28T03:26:09.542Z,6.59
2017-02-28T03:26:50.048Z,6.77
2017-02-28T03:27:30.539Z,6.74
2017-02-28T03:28:11.034Z,6.8
2017-02-28T03:28:51.533Z,6.89
2017-02-28T03:29:32.061Z,6.99
2017-02-28T03:30:12.540Z,6.94
2017-02-28T03:30:53.072Z,6.84
2017-02-28T03:31:33.547Z,6.87
2017-02-28T03:32:14.050Z,6.91
2017-02-28T03:32:54.536Z,6.81
2017-02-28T03:33:35.019Z,6.71
2017-02-28T03:34:15.502Z,6.74
2017-02-28T03:34:55.996Z,6.67
2017-02-28T03:35:36.483Z,6.73
2017-02-28T03:36:16.950Z,6.71
2017-02-28T03:36:57.483Z,6.69
2017-02-28T03:37:38.133Z,6.74
2017-02-28T03:38:18.539Z,6.84
2017-02-28T03:38:59.051Z,6.69
2017-02-28T03:39:39.552Z,6.76
2017-02-28T03:40:20.045Z,6.85
2017-02-28T03:41:00.526Z,6.73
2017-02-28T03:41:40.978Z,6.8
2017-02-28T03:42:21.477Z,6.92
2017-02-28T03:43:01.980Z,6.84
2017-02-28T03:43:42.502Z,6.8
2017-02-28T03:44:22.932Z,6.88
2017-02-28T03:45:03.464Z,6.99
2017-02-28T03:45:43.947Z,7.03
2017-02-28T03:46:24.454Z,6.98
2017-02-28T03:47:05.803Z,6.85
2017-02-28T03:47:46.240Z,6.92
2017-02-28T03:48:30.309Z,6.91
2017-02-28T03:49:10.766Z,7.05
2017-02-28T03:49:51.271Z,7.13
2017-02-28T03:50:31.727Z,7.12
2017-02-28T03:51:12.211Z,7.09
2017-02-28T03:51:52.730Z,7.1
2017-02-28T03:52:33.266Z,6.99
2017-02-28T03:53:13.746Z,6.84
2017-02-28T03:53:54.238Z,7.02
2017-02-28T03:54:34.775Z,7.06
2017-02-28T03:55:15.266Z,6.97
2017-02-28T03:55:55.736Z,7.12
2017-02-28T03:56:36.241Z,7.13
2017-02-28T03:57:17.641Z,7.23
2017-02-28T03:57:58.124Z,7.34
2017-02-28T03:58:38.575Z,7.1
2017-02-28T03:59:19.064Z,7.21
2017-02-28T03:59:59.545Z,7.13
2017-02-28T04:00:40.033Z,7.23
2017-02-28T04:01:20.506Z,7.12
2017-02-28T04:02:01.008Z,7.24
2017-02-28T04:02:41.489Z,7.32
2017-02-28T04:03:22.020Z,7.21
2017-02-28T04:04:02.524Z,7.16
2017-02-28T04:04:43.018Z,7.15
2017-02-28T04:05:23.474Z,7.1
2017-02-28T04:06:03.998Z,7.24
2017-02-28T04:06:44.473Z,7.31
2017-02-28T04:07:24.967Z,7.34
2017-02-28T04:08:05.523Z,7.45
2017-02-28T04:08:46.054Z,7.43
2017-02-28T04:09:26.492Z,7.46
2017-02-28T04:10:07.047Z,7.45
2017-02-28T04:10:47.528Z,7.48
2017-02-28T04:11:27.983Z,7.45
2017-02-28T04:12:08.451Z,7.34
2017-02-28T04:12:48.969Z,7.42
2017-02-28T04:13:29.486Z,7.35
2017-02-28T04:14:09.971Z,7.39
2017-02-28T04:14:50.459Z,7.37
2017-02-28T04:15:30.938Z,7.39
2017-02-28T04:16:11.452Z,7.4
2017-02-28T04:16:51.945Z,7.42
2017-02-28T04:17:32.625Z,7.37
2017-02-28T04:18:13.112Z,7.43
2017-02-28T04:18:53.629Z,7.5
2017-02-28T04:19:34.143Z,7.6
2017-02-28T04:20:14.627Z,7.55
2017-02-28T04:20:55.081Z,7.46
2017-02-28T04:21:35.575Z,7.53
2017-02-28T04:22:16.071Z,7.52
2017-02-28T04:22:56.512Z,7.49
2017-02-28T04:23:36.997Z,7.43
2017-02-28T04:24:17.495Z,7.45
2017-02-28T04:24:57.988Z,7.48
2017-02-28T04:25:38.469Z,7.53
2017-02-28T04:26:18.928Z,7.64
2017-02-28T04:26:59.420Z,7.57
2017-02-28T04:27:39.904Z,7.58
2017-02-28T04:28:20.395Z,7.55
2017-02-28T04:29:00.856Z,7.57
2017-02-28T04:29:41.344Z,7.37
2017-02-28T04:30:21.820Z,7.42
2017-02-28T04:31:02.306Z,7.46
2017-02-28T04:31:42.845Z,7.42
2017-02-28T04:32:23.271Z,7.49
2017-02-28T04:33:03.746Z,7.52
2017-02-28T04:33:44.336Z,7.55
2017-02-28T04:34:24.761Z,7.4
2017-02-28T04:35:05.290Z,7.5
2017-02-28T04:35:46.211Z,7.4
2017-02-28T04:36:33.529Z,7.46
2017-02-28T04:37:14.107Z,7.31
2017-02-28T04:37:54.560Z,7.46
2017-02-28T04:38:35.078Z,7.42
2017-02-28T04:39:15.583Z,7.39
2017-02-28T04:39:56.099Z,7.5
2017-02-28T04:40:36.575Z,7.52
2017-02-28T04:41:17.087Z,7.48
2017-02-28T04:41:57.619Z,7.45
2017-02-28T04:42:38.110Z,7.39
2017-02-28T04:43:18.601Z,7.37
2017-02-28T04:43:59.104Z,7.53
2017-02-28T04:44:39.568Z,7.5
2017-02-28T04:45:20.091Z,7.42
2017-02-28T04:46:00.533Z,7.42
2017-02-28T04:46:41.030Z,7.42
2017-02-28T04:47:21.550Z,7.39
2017-02-28T04:48:02.061Z,7.45
2017-02-28T04:48:42.523Z,7.35
2017-02-28T04:49:22.987Z,7.42
2017-02-28T04:50:03.460Z,7.4
2017-02-28T04:50:44.006Z,7.49
2017-02-28T04:51:24.488Z,7.39
2017-02-28T04:52:04.965Z,7.48
2017-02-28T04:52:45.455Z,7.39
2017-02-28T04:53:25.901Z,7.37
2017-02-28T04:54:06.402Z,7.43
2017-02-28T04:54:46.896Z,7.39
2017-02-28T04:55:27.374Z,7.39
2017-02-28T04:56:07.877Z,7.39
2017-02-28T04:56:48.340Z,7.45
2017-02-28T04:57:28.856Z,7.42
2017-02-28T04:58:09.324Z,7.4
2017-02-28T04:58:49.832Z,7.45
2017-02-28T04:59:30.365Z,7.5
2017-02-28T05:00:10.874Z,7.46
2017-02-28T05:00:51.417Z,7.39
2017-02-28T05:01:31.901Z,7.45
2017-02-28T05:02:12.394Z,7.42
2017-02-28T05:02:52.895Z,7.43
2017-02-28T05:03:33.376Z,7.43
2017-02-28T05:04:13.810Z,7.37
2017-02-28T05:04:54.308Z,7.43
2017-02-28T05:05:34.788Z,7.31
2017-02-28T05:06:15.293Z,7.34
2017-02-28T05:06:55.798Z,7.34
2017-02-28T05:07:36.249Z,7.37
2017-02-28T05:08:16.691Z,7.46
2017-02-28T05:08:57.170Z,7.42
2017-02-28T05:09:37.680Z,7.35
2017-02-28T05:10:18.133Z,7.43
2017-02-28T05:10:58.636Z,7.48
2017-02-28T05:11:39.137Z,7.32
2017-02-28T05:12:19.659Z,7.42
2017-02-28T05:13:00.128Z,7.3
2017-02-28T05:13:40.638Z,7.28
2017-02-28T05:14:21.140Z,7.31
2017-02-28T05:15:01.603Z,7.3
2017-02-28T05:15:42.066Z,7.32
2017-02-28T05:16:22.618Z,7.42
2017-02-28T05:17:03.136Z,7.42
2017-02-28T05:17:43.653Z,7.45
2017-02-28T05:18:24.134Z,7.45
2017-02-28T05:19:04.668Z,7.35
2017-02-28T05:19:45.150Z,7.34
2017-02-28T05:20:25.669Z,7.39
2017-02-28T05:21:06.193Z,7.5
2017-02-28T05:21:46.645Z,7.39
2017-02-28T05:22:27.109Z,7.34
2017-02-28T05:23:07.608Z,7.34
2017-02-28T05:23:48.114Z,7.39
2017-02-28T05:24:28.621Z,7.45
2017-02-28T05:25:09.112Z,7.5
2017-02-28T05:25:53.173Z,7.43
2017-02-28T05:26:33.670Z,7.52
2017-02-28T05:27:14.149Z,7.49
2017-02-28T05:27:58.321Z,7.58
2017-02-28T05:28:38.840Z,7.67
2017-02-28T05:29:20.316Z,7.52
2017-02-28T05:30:00.802Z,7.5
2017-02-28T05:30:42.333Z,7.49
2017-02-28T05:31:22.938Z,7.49
2017-02-28T05:32:03.544Z,7.58
2017-02-28T05:32:44.074Z,7.52
2017-02-28T05:33:24.529Z,7.61
2017-02-28T05:34:05.036Z,7.58
2017-02-28T05:34:45.574Z,7.5
2017-02-28T05:35:26.062Z,7.52
2017-02-28T05:36:06.570Z,7.68
2017-02-28T05:36:47.071Z,7.64
2017-02-28T05:37:27.604Z,7.53
2017-02-28T05:38:08.191Z,7.46
2017-02-28T05:38:48.661Z,7.46
2017-02-28T05:39:29.136Z,7.49
2017-02-28T05:40:09.668Z,7.53
2017-02-28T05:40:50.179Z,7.58
2017-02-28T05:41:30.683Z,7.58
2017-02-28T05:42:11.167Z,7.48
2017-02-28T05:42:51.804Z,7.43
2017-02-28T05:43:32.222Z,7.45
2017-02-28T05:44:12.740Z,7.4
2017-02-28T05:44:53.254Z,7.48
2017-02-28T05:45:33.746Z,7.43
2017-02-28T05:46:14.209Z,7.46
2017-02-28T05:46:54.702Z,7.45
2017-02-28T05:47:35.186Z,7.46
2017-02-28T05:48:16.068Z,7.42
2017-02-28T05:48:56.524Z,7.34
2017-02-28T05:49:37.030Z,7.39
2017-02-28T05:50:17.556Z,7.35
2017-02-28T05:50:58.048Z,7.32
2017-02-28T05:51:38.518Z,7.34
2017-02-28T05:52:18.979Z,7.39
2017-02-28T05:52:59.455Z,7.31
2017-02-28T05:53:39.958Z,7.28
2017-02-28T05:54:20.495Z,7.32
2017-02-28T05:55:00.958Z,7.34
2017-02-28T05:55:41.481Z,7.12
2017-02-28T05:56:21.949Z,7.21
2017-02-28T05:57:02.494Z,7.31
2017-02-28T05:57:42.964Z,7.42
2017-02-28T05:58:23.482Z,7.27
2017-02-28T05:59:04.015Z,7.25
2017-02-28T05:59:44.507Z,7.25
2017-02-28T06:00:25.019Z,7.17
2017-02-28T06:01:05.519Z,7.27
2017-02-28T06:01:46.023Z,7.25
2017-02-28T06:02:26.559Z,7.1
2017-02-28T06:04:39.691Z,7.17
2017-02-28T06:05:20.327Z,7.06
2017-02-28T06:06:00.823Z,6.98
2017-02-28T06:06:41.318Z,7.06
2017-02-28T06:07:21.806Z,7.1
2017-02-28T06:08:02.333Z,7.1
2017-02-28T06:08:42.766Z,7.02
2017-02-28T06:09:23.296Z,7.13
2017-02-28T06:10:03.757Z,6.97
2017-02-28T06:10:44.266Z,7.02
2017-02-28T06:11:24.786Z,7.02
2017-02-28T06:12:05.243Z,6.94
2017-02-28T06:12:45.732Z,7.02
2017-02-28T06:13:26.341Z,6.94
2017-02-28T06:14:06.832Z,6.98
2017-02-28T06:14:47.341Z,6.79
2017-02-28T06:15:27.874Z,6.79
2017-02-28T06:16:08.360Z,6.79
2017-02-28T06:16:48.836Z,6.92
2017-02-28T06:17:29.343Z,6.98
2017-02-28T06:18:09.979Z,6.89
2017-02-28T06:18:50.450Z,6.91
2017-02-28T06:19:30.935Z,7.02
2017-02-28T06:20:12.115Z,7.09
2017-02-28T06:20:52.622Z,7.07
2017-02-28T06:21:33.114Z,7.17
2017-02-28T06:22:13.594Z,7.1
2017-02-28T06:22:54.122Z,7.12
2017-02-28T06:23:35.168Z,7.23
2017-02-28T06:24:16.898Z,7.17
2017-02-28T06:24:57.474Z,7.13
2017-02-28T06:25:38.021Z,7.09
2017-02-28T06:26:18.575Z,7.12
2017-02-28T06:26:59.261Z,7.1
2017-02-28T06:27:39.762Z,7.25
2017-02-28T06:28:20.203Z,7.32
2017-02-28T06:29:00.695Z,7.32
2017-02-28T06:29:41.248Z,7.43
2017-02-28T06:30:21.727Z,7.42
2017-02-28T06:31:02.201Z,7.42
2017-02-28T06:31:42.727Z,7.48
2017-02-28T06:32:23.243Z,7.49
2017-02-28T06:33:03.800Z,7.52
2017-02-28T06:33:44.292Z,7.55
2017-02-28T06:34:24.774Z,7.69
2017-02-28T06:35:05.356Z,7.61
2017-02-28T06:35:45.862Z,7.67
2017-02-28T06:36:26.384Z,7.69
2017-02-28T06:37:06.912Z,7.61
2017-02-28T06:37:47.373Z,7.74
2017-02-28T06:38:27.947Z,7.72
2017-02-28T06:39:10.229Z,7.64
2017-02-28T06:39:50.690Z,7.69
2017-02-28T06:40:31.185Z,7.8
2017-02-28T06:41:11.702Z,7.86
2017-02-28T06:41:52.164Z,8
2017-02-28T06:42:32.626Z,7.75
2017-02-28T06:43:13.216Z,7.83
2017-02-28T06:43:53.675Z,7.86
2017-02-28T06:44:34.237Z,7.92
2017-02-28T06:45:14.666Z,7.89
2017-02-28T06:45:55.236Z,7.92
2017-02-28T06:46:35.653Z,7.86
2017-02-28T06:47:16.136Z,7.86
2017-02-28T06:47:56.720Z,8.04
2017-02-28T06:48:37.157Z,8.01
2017-02-28T06:49:17.620Z,8
2017-02-28T06:49:58.078Z,8.04
2017-02-28T06:50:38.613Z,8.05
2017-02-28T06:51:19.173Z,7.98
2017-02-28T06:51:59.626Z,8.07
2017-02-28T06:52:40.122Z,8.1
2017-02-28T06:53:20.719Z,8.04
2017-02-28T06:54:01.273Z,8.11
2017-02-28T06:54:41.791Z,8.05
2017-02-28T06:55:22.327Z,8.11
2017-02-28T06:56:02.794Z,8.05
2017-02-28T06:56:43.245Z,8.19
2017-02-28T06:57:23.772Z,8.08
2017-02-28T06:58:04.249Z,8.15
2017-02-28T06:58:44.727Z,8.05
2017-02-28T06:59:25.245Z,8.07
2017-02-28T07:00:05.804Z,8.1
2017-02-28T07:00:46.231Z,8.22
2017-02-28T07:01:26.764Z,8.11
2017-02-28T07:02:07.228Z,8.11
2017-02-28T07:02:47.726Z,8.11
2017-02-28T07:03:28.232Z,8.05
2017-02-28T07:04:08.707Z,8.16
2017-02-28T07:04:49.193Z,8.22
2017-02-28T07:05:29.795Z,8.15
2017-02-28T07:06:10.323Z,8.1
2017-02-28T07:06:50.820Z,8.16
2017-02-28T07:07:31.309Z,8.26
2017-02-28T07:08:11.869Z,8.26
2017-02-28T07:08:52.303Z,8.28
2017-02-28T07:09:32.822Z,8.19
2017-02-28T07:10:13.264Z,8.29
2017-02-28T07:10:53.817Z,8.41
2017-02-28T07:11:34.276Z,8.33
2017-02-28T07:12:14.778Z,8.36
2017-02-28T07:12:55.299Z,8.37
2017-02-28T07:13:35.782Z,8.4
2017-02-28T07:14:16.300Z,8.45
2017-02-28T07:14:56.797Z,8.56
2017-02-28T07:15:37.269Z,8.61
2017-02-28T07:16:17.790Z,8.47
2017-02-28T07:16:58.320Z,8.43
2017-02-28T07:17:38.797Z,8.41
2017-02-28T07:18:19.326Z,8.38
2017-02-28T07:18:59.788Z,8.43
2017-02-28T07:19:40.337Z,8.56
2017-02-28T07:20:20.839Z,8.74
2017-02-28T07:21:01.367Z,8.66
2017-02-28T07:21:41.825Z,8.73
2017-02-28T07:22:22.329Z,8.65
2017-02-28T07:23:02.785Z,8.58
2017-02-28T07:23:43.525Z,8.63
2017-02-28T07:24:23.990Z,8.62
2017-02-28T07:25:04.458Z,8.62
2017-02-28T07:25:44.955Z,8.65
2017-02-28T07:26:25.441Z,8.5
2017-02-28T07:27:05.920Z,8.73
2017-02-28T07:27:46.412Z,8.74
2017-02-28T07:28:26.870Z,8.65
2017-02-28T07:29:07.406Z,8.63
2017-02-28T07:29:47.905Z,8.77
2017-02-28T07:30:28.407Z,8.76
2017-02-28T07:31:08.847Z,8.79
2017-02-28T07:31:49.332Z,8.66
2017-02-28T07:32:29.835Z,8.73
2017-02-28T07:33:10.340Z,8.81
2017-02-28T07:33:50.853Z,8.73
2017-02-28T07:34:31.389Z,8.7
2017-02-28T07:35:11.842Z,8.86
2017-02-28T07:35:52.365Z,8.83
2017-02-28T07:36:32.861Z,8.83
2017-02-28T07:37:13.358Z,8.86
2017-02-28T07:37:53.898Z,8.77
2017-02-28T07:38:34.373Z,8.79
2017-02-28T07:39:14.888Z,8.76
2017-02-28T07:39:55.309Z,8.83
2017-02-28T07:40:35.805Z,8.84
2017-02-28T07:41:16.306Z,8.7
2017-02-28T07:41:56.766Z,8.62
2017-02-28T07:42:37.282Z,8.73
2017-02-28T07:43:17.733Z,8.7
2017-02-28T07:43:58.251Z,8.73
2017-02-28T07:44:38.745Z,8.66
2017-02-28T07:45:19.221Z,8.65
2017-02-28T07:45:59.662Z,8.77
2017-02-28T07:46:40.167Z,8.73
2017-02-28T07:47:20.655Z,8.63
2017-02-28T07:48:01.161Z,8.65
2017-02-28T07:48:41.657Z,8.61
2017-02-28T07:49:22.213Z,8.66
2017-02-28T07:50:02.822Z,8.7
2017-02-28T07:50:43.308Z,8.61
2017-02-28T07:51:23.802Z,8.66
2017-02-28T07:52:04.303Z,8.7
2017-02-28T07:52:44.817Z,8.68
2017-02-28T07:53:25.328Z,8.8
2017-02-28T07:54:05.819Z,8.76
2017-02-28T07:54:46.316Z,8.79
2017-02-28T07:55:26.777Z,8.81
2017-02-28T07:57:40.000Z,8.92
2017-02-28T07:58:20.504Z,9.04
2017-02-28T07:59:00.966Z,8.95
2017-02-28T07:59:41.481Z,9.05
2017-02-28T08:00:21.996Z,8.99
2017-02-28T08:01:02.523Z,9.14
2017-02-28T08:01:42.958Z,9.14
2017-02-28T08:02:23.500Z,9.14
2017-02-28T08:03:03.939Z,9.13
2017-02-28T08:03:44.446Z,9.29
2017-02-28T08:04:24.944Z,9.39
2017-02-28T08:05:05.460Z,9.24
2017-02-28T08:05:45.981Z,9.35
2017-02-28T08:06:26.593Z,9.35
2017-02-28T08:07:07.058Z,9.28
2017-02-28T08:07:47.621Z,9.26
2017-02-28T08:08:28.033Z,9.4
2017-02-28T08:09:08.509Z,9.28
2017-02-28T08:09:49.150Z,9.39
2017-02-28T08:10:29.654Z,9.56
2017-02-28T08:11:10.152Z,9.53
2017-02-28T08:11:50.677Z,9.54
2017-02-28T08:12:31.136Z,9.5
2017-02-28T08:13:11.649Z,9.56
2017-02-28T08:13:52.483Z,9.53
2017-02-28T08:14:33.029Z,9.47
2017-02-28T08:15:13.542Z,9.4
2017-02-28T08:15:54.472Z,9.53
2017-02-28T08:16:35.000Z,9.38
2017-02-28T08:17:15.507Z,9.32
2017-02-28T08:17:55.952Z,9.38
2017-02-28T08:18:36.467Z,9.31
2017-02-28T08:19:16.971Z,9.13
2017-02-28T08:19:57.399Z,9.26
2017-02-28T08:20:37.985Z,9.31
2017-02-28T08:21:18.398Z,9.33
2017-02-28T08:21:58.888Z,9.38
2017-02-28T08:22:39.359Z,9.36
2017-02-28T08:23:19.953Z,9.26
2017-02-28T08:24:00.467Z,9.35
2017-02-28T08:24:40.953Z,9.4
2017-02-28T08:25:21.488Z,9.4
2017-02-28T08:26:01.994Z,9.28
2017-02-28T08:26:42.449Z,9.31
2017-02-28T08:27:22.898Z,9.29
2017-02-28T08:28:03.380Z,9.24
2017-02-28T08:28:43.864Z,9.23
2017-02-28T08:29:24.352Z,9.14
2017-02-28T08:30:04.972Z,9.23
2017-02-28T08:30:45.507Z,9.11
2017-02-28T08:31:25.992Z,9.29
2017-02-28T08:32:06.449Z,9.33
2017-02-28T08:32:46.912Z,9.35
2017-02-28T08:33:27.441Z,9.35
2017-02-28T08:34:07.945Z,9.36
2017-02-28T08:34:48.423Z,9.28
2017-02-28T08:35:28.935Z,9.23
2017-02-28T08:36:09.481Z,9.28
2017-02-28T08:36:49.985Z,9.26
2017-02-28T08:37:30.526Z,9.14
2017-02-28T08:38:11.060Z,9.23
2017-02-28T08:38:51.524Z,9.18
2017-02-28T08:39:32.009Z,9.05
2017-02-28T08:40:12.503Z,9.18
2017-02-28T08:40:52.995Z,9.15
2017-02-28T08:41:33.546Z,9.13
2017-02-28T08:42:14.066Z,9.33
2017-02-28T08:42:54.542Z,9.29
2017-02-28T08:43:35.018Z,9.24
2017-02-28T08:44:15.608Z,9.24
2017-02-28T08:44:56.073Z,9.28
2017-02-28T08:45:36.750Z,9.4
2017-02-28T08:46:17.275Z,9.43
2017-02-28T08:46:57.735Z,9.38
2017-02-28T08:47:38.202Z,9.43
2017-02-28T08:48:18.704Z,9.42
2017-02-28T08:48:59.246Z,9.28
2017-02-28T08:49:39.736Z,9.28
2017-02-28T08:50:20.248Z,9.2
2017-02-28T08:51:00.778Z,9.08
2017-02-28T08:51:41.243Z,9.13
2017-02-28T08:52:21.741Z,9.11
2017-02-28T08:53:02.251Z,9.08
2017-02-28T08:53:42.727Z,9.14
2017-02-28T08:54:23.205Z,9.15
2017-02-28T08:55:03.662Z,9.14
2017-02-28T08:55:44.148Z,9.08
2017-02-28T08:56:24.653Z,9.18
2017-02-28T08:57:05.151Z,9.26
2017-02-28T08:57:45.658Z,9.18
2017-02-28T08:58:26.100Z,9.24
2017-02-28T08:59:06.610Z,9.15
2017-02-28T08:59:47.115Z,9.23
2017-02-28T09:00:27.642Z,9.17
2017-02-28T09:01:08.121Z,9.21
2017-02-28T09:01:48.584Z,9.15
2017-02-28T09:02:29.106Z,9.04
2017-02-28T09:03:10.236Z,9.11
2017-02-28T09:03:50.460Z,9.2